Time;durP1;ratioP1;P1;durP2;ratioP2;P2;SDS_P1;SDS_P2;PMS_P1;PMS_P2;Temp;Humidity;BMP_temperature;BMP_pressure;BME280_temperature;BME280_humidity;BME280_pressure;Samples;Min_cycle;Max_cycle;Signal;HPM_P1;HPM_P2
2023/03/18 00:01:16;;;;;;;58.97;24.08;;;;;;;0.50;100.00;98068.53;5102456;27;20376;-82
2023/03/18 00:03:42;;;;;;;55.10;22.45;;;;;;;0.42;100.00;98062.53;5131083;27;20084;-83
2023/03/18 00:06:10;;;;;;;54.20;22.45;;;;;;;0.37;100.00;98056.44;5137324;27;20022;-83
2023/03/18 00:08:36;;;;;;;54.47;20.95;;;;;;;0.36;100.00;98060.00;5113932;28;20490;-84
2023/03/18 00:11:04;;;;;;;42.30;19.30;;;;;;;0.35;100.00;98074.03;5131221;27;20484;-83
2023/03/18 00:13:32;;;;;;;38.00;17.50;;;;;;;0.26;100.00;98055.72;5103361;27;20459;-82
2023/03/18 00:15:59;;;;;;;29.50;12.45;;;;;;;0.30;100.00;98062.72;5131277;27;20022;-82
2023/03/18 00:18:24;;;;;;;33.08;13.07;;;;;;;0.23;100.00;98052.28;5148794;27;20027;-82
2023/03/18 00:20:50;;;;;;;34.47;14.05;;;;;;;0.22;100.00;98061.91;5121531;28;20027;-81
2023/03/18 00:23:16;;;;;;;28.50;12.90;;;;;;;0.23;100.00;98058.41;5110800;28;20023;-82
2023/03/18 00:25:42;;;;;;;38.65;12.73;;;;;;;0.22;100.00;98053.16;5145493;27;20474;-84
2023/03/18 00:28:08;;;;;;;33.40;13.00;;;;;;;0.24;100.00;98052.25;5139885;27;20083;-81
2023/03/18 00:30:37;;;;;;;25.70;12.88;;;;;;;0.26;100.00;98060.13;5113437;28;20494;-82
2023/03/18 00:33:02;;;;;;;29.38;13.02;;;;;;;0.12;100.00;98039.28;5096680;28;20159;-82
2023/03/18 00:35:29;;;;;;;30.92;12.75;;;;;;;0.12;100.00;98035.78;5107713;28;20024;-82
2023/03/18 00:37:56;;;;;;;27.08;12.35;;;;;;;0.15;100.00;98035.72;5113880;28;20531;-82
2023/03/18 00:40:28;;;;;;;27.73;12.35;;;;;;;0.13;100.00;98035.72;5099508;28;20034;-82
2023/03/18 00:43:00;;;;;;;27.30;12.13;;;;;;;0.09;100.00;98034.06;5111878;28;20575;-82
2023/03/18 00:45:26;;;;;;;29.85;13.13;;;;;;;-0.01;100.00;98019.28;5132216;28;20019;-83
2023/03/18 00:47:51;;;;;;;28.00;13.68;;;;;;;-0.02;100.00;98022.78;5097583;28;20118;-83
2023/03/18 00:50:17;;;;;;;27.10;12.00;;;;;;;-0.06;100.00;98018.44;5102812;28;20035;-82
2023/03/18 00:52:43;;;;;;;26.67;12.68;;;;;;;-0.03;100.00;98023.66;5102064;28;20414;-83
2023/03/18 00:55:11;;;;;;;28.65;12.18;;;;;;;0.04;100.00;98027.97;5109077;28;20023;-83
2023/03/18 00:57:36;;;;;;;31.20;13.48;;;;;;;-0.03;100.00;98021.03;5103645;28;20026;-83
2023/03/18 01:00:05;;;;;;;34.95;15.05;;;;;;;0.04;100.00;98032.34;5096376;28;20031;-82
2023/03/18 01:02:31;;;;;;;34.35;14.82;;;;;;;0.00;100.00;98026.28;5125592;28;20023;-82
2023/03/18 01:04:57;;;;;;;26.30;13.18;;;;;;;-0.06;100.00;98015.81;5141813;27;20492;-82
2023/03/18 01:07:23;;;;;;;28.60;13.77;;;;;;;0.00;100.00;98018.41;5100381;27;20118;-82
2023/03/18 01:09:49;;;;;;;32.30;14.13;;;;;;;-0.09;100.00;98008.84;5100751;27;20066;-82
2023/03/18 01:12:14;;;;;;;29.73;14.45;;;;;;;-0.09;100.00;98008.84;5117177;27;20034;-83
2023/03/18 01:14:40;;;;;;;31.13;14.27;;;;;;;-0.08;100.00;98014.97;5142982;27;20031;-84
2023/03/18 01:17:07;;;;;;;28.25;12.60;;;;;;;-0.10;100.00;98016.78;5123424;27;20030;-83
2023/03/18 01:19:34;;;;;;;28.83;12.50;;;;;;;-0.14;100.00;98017.69;5100370;27;20034;-83
2023/03/18 01:22:00;;;;;;;28.23;12.63;;;;;;;-0.10;100.00;98016.78;5099861;27;20026;-82
2023/03/18 01:24:27;;;;;;;24.70;12.30;;;;;;;-0.11;100.00;98017.66;5117992;27;20094;-81
2023/03/18 01:26:53;;;;;;;25.40;12.63;;;;;;;-0.14;100.00;98007.16;5129742;27;20031;-84
2023/03/18 01:29:21;;;;;;;33.90;13.80;;;;;;;-0.24;100.00;97988.00;5104010;27;20344;-83
2023/03/18 01:31:47;;;;;;;34.92;15.57;;;;;;;-0.47;100.00;97947.16;5117630;27;20071;-83
2023/03/18 01:34:13;;;;;;;27.45;14.13;;;;;;;-0.42;100.00;97969.84;5116660;27;20065;-84
2023/03/18 01:36:38;;;;;;;46.92;19.58;;;;;;;-0.29;100.00;97995.09;5121044;27;20026;-83
2023/03/18 01:39:05;;;;;;;40.95;17.50;;;;;;;-0.45;100.00;97966.38;5108236;27;20019;-83
2023/03/18 01:41:31;;;;;;;34.40;15.43;;;;;;;-0.34;100.00;97988.16;5099903;27;20035;-84
2023/03/18 01:43:56;;;;;;;28.15;14.00;;;;;;;-0.35;100.00;97996.94;5099486;27;20030;-83
2023/03/18 01:46:48;;;;;;;33.33;14.38;;;;;;;-0.28;100.00;98009.13;5103811;27;20023;-82
2023/03/18 01:49:18;;;;;;;33.75;15.30;;;;;;;-0.32;100.00;97999.50;5101004;27;20034;-82
2023/03/18 01:51:59;;;;;;;32.25;14.45;;;;;;;-0.34;100.00;97999.53;5150927;27;20031;-84
2023/03/18 01:54:26;;;;;;;33.63;14.55;;;;;;;-0.32;100.00;98008.28;5104039;27;20034;-83
2023/03/18 01:56:52;;;;;;;30.48;14.63;;;;;;;-0.31;100.00;98003.91;5116470;27;20050;-83
2023/03/18 01:59:20;;;;;;;35.97;14.63;;;;;;;-0.27;100.00;98003.81;5131194;27;20019;-82
2023/03/18 02:01:57;;;;;;;35.72;14.60;;;;;;;-0.27;100.00;98000.31;5100086;27;20035;-83
2023/03/18 02:04:25;;;;;;;27.05;13.25;;;;;;;-0.31;100.00;98002.13;5100312;27;20031;-83
2023/03/18 02:06:51;;;;;;;34.97;14.68;;;;;;;-0.32;100.00;97996.88;5119907;27;20543;-83
2023/03/18 02:09:16;;;;;;;31.88;14.45;;;;;;;-0.33;100.00;98003.91;5133383;27;20027;-82
2023/03/18 02:11:45;;;;;;;24.75;12.52;;;;;;;-0.36;100.00;98000.44;5125120;27;20039;-83
2023/03/18 02:14:13;;;;;;;37.10;14.07;;;;;;;-0.36;100.00;97998.69;5133400;27;20027;-81
2023/03/18 02:16:53;;;;;;;28.42;12.15;;;;;;;-0.41;100.00;97997.88;5104427;27;20482;-82
2023/03/18 02:19:38;;;;;;;27.98;11.48;;;;;;;-0.43;100.00;97999.63;5113683;27;20060;-82
2023/03/18 02:22:32;;;;;;;27.45;11.40;;;;;;;-0.43;100.00;98006.66;5129275;27;20027;-83
2023/03/18 02:25:23;;;;;;;24.98;11.82;;;;;;;-0.42;100.00;98013.63;5133579;27;20058;-82
2023/03/18 02:27:53;;;;;;;26.48;11.10;;;;;;;-0.48;100.00;98011.09;5116249;27;20046;-82
2023/03/18 02:30:31;;;;;;;31.65;12.27;;;;;;;-0.52;100.00;98012.03;5131491;27;20115;-82
2023/03/18 02:32:58;;;;;;;24.58;10.85;;;;;;;-0.49;100.00;98015.47;5115862;27;20023;-82
2023/03/18 02:35:24;;;;;;;25.67;11.90;;;;;;;-0.50;100.00;98010.25;5130914;27;20019;-82
2023/03/18 02:37:50;;;;;;;27.45;11.52;;;;;;;-0.54;100.00;98006.78;5129336;27;20493;-83
2023/03/18 02:40:19;;;;;;;27.33;12.35;;;;;;;-0.47;100.00;98012.84;5113238;27;20027;-83
2023/03/18 02:42:46;;;;;;;27.20;11.73;;;;;;;-0.49;100.00;98006.75;5111688;27;20037;-82
2023/03/18 02:45:23;;;;;;;25.67;12.30;;;;;;;-0.50;100.00;98012.88;5150262;27;20465;-82
2023/03/18 02:47:49;;;;;;;28.50;12.80;;;;;;;-0.50;100.00;98015.50;5111407;27;20104;-83
2023/03/18 02:50:15;;;;;;;21.02;10.88;;;;;;;-0.50;100.00;98028.63;5107824;27;20059;-84
2023/03/18 02:52:41;;;;;;;24.13;11.25;;;;;;;-0.63;100.00;98017.38;5105553;27;20027;-83
2023/03/18 02:55:07;;;;;;;26.63;11.48;;;;;;;-0.63;100.00;98017.38;5143171;27;20158;-82
2023/03/18 02:57:33;;;;;;;28.55;11.07;;;;;;;-0.59;100.00;98025.22;5103269;27;20114;-83
2023/03/18 02:59:58;;;;;;;27.67;12.10;;;;;;;-0.64;100.00;98023.50;5115150;27;20050;-83
2023/03/18 03:02:24;;;;;;;23.35;11.02;;;;;;;-0.64;100.00;98024.38;5115976;27;20506;-83
2023/03/18 03:04:50;;;;;;;23.27;10.15;;;;;;;-0.68;100.00;98022.66;5099540;27;20023;-82
2023/03/18 03:07:16;;;;;;;22.40;10.35;;;;;;;-0.66;100.00;98020.03;5120890;27;20046;-82
2023/03/18 03:09:41;;;;;;;25.40;9.70;;;;;;;-0.69;100.00;98026.19;5124474;27;20061;-84
2023/03/18 03:12:08;;;;;;;19.92;9.15;;;;;;;-0.69;100.00;98020.94;5100795;27;20487;-83
2023/03/18 03:14:33;;;;;;;17.95;9.05;;;;;;;-0.80;100.00;98007.03;5097741;27;20023;-82
2023/03/18 03:17:08;;;;;;;23.05;8.98;;;;;;;-0.73;100.00;98013.09;5102868;27;20023;-83
2023/03/18 03:19:34;;;;;;;23.75;8.77;;;;;;;-0.92;100.00;97980.91;5100965;27;20034;-83
2023/03/18 03:21:59;;;;;;;26.50;9.73;;;;;;;-0.86;100.00;98001.00;5102311;27;20031;-82
2023/03/18 03:24:25;;;;;;;20.23;9.27;;;;;;;-0.86;100.00;97998.38;5133564;27;20042;-82
2023/03/18 03:26:50;;;;;;;23.15;9.43;;;;;;;-0.77;100.00;98020.13;5106224;27;20038;-81
2023/03/18 03:29:16;;;;;;;15.52;9.02;;;;;;;-0.80;100.00;98021.94;5127870;27;20498;-82
2023/03/18 03:31:41;;;;;;;20.23;9.35;;;;;;;-0.79;100.00;98024.53;5129131;27;20035;-81
2023/03/18 03:34:07;;;;;;;23.27;9.43;;;;;;;-0.67;100.00;98040.16;5103727;27;20482;-82
2023/03/18 03:36:33;;;;;;;26.95;11.90;;;;;;;-0.74;100.00;98033.22;5111356;27;20110;-81
2023/03/18 03:38:58;;;;;;;34.83;14.18;;;;;;;-0.62;100.00;98048.91;5124640;27;20160;-81
2023/03/18 03:41:24;;;;;;;39.63;15.80;;;;;;;-0.64;100.00;98050.66;5111343;27;20463;-82
2023/03/18 03:43:50;;;;;;;37.15;13.85;;;;;;;-0.57;100.00;98057.59;5098088;27;20027;-82
2023/03/18 03:46:16;;;;;;;38.10;15.23;;;;;;;-0.57;100.00;98052.34;5120984;27;20042;-81
2023/03/18 03:48:42;;;;;;;36.55;14.85;;;;;;;-0.53;100.00;98068.94;5106051;27;20027;-81
2023/03/18 03:51:07;;;;;;;45.60;18.38;;;;;;;-0.55;100.00;98055.81;5118886;27;20011;-80
2023/03/18 03:53:34;;;;;;;70.28;25.83;;;;;;;-0.50;100.00;98070.66;5131852;27;20034;-81
2023/03/18 03:56:00;;;;;;;99.50;38.72;;;;;;;-0.46;100.00;98075.00;5127684;27;20034;-82
2023/03/18 03:58:26;;;;;;;186.60;70.53;;;;;;;-0.42;100.00;98068.81;5118580;27;20018;-80
2023/03/18 04:00:51;;;;;;;113.22;46.10;;;;;;;-0.27;100.00;98071.28;5105647;27;20110;-80
2023/03/18 04:03:17;;;;;;;62.00;22.98;;;;;;;-0.16;100.00;98085.19;5143279;27;20019;-78
2023/03/18 04:05:43;;;;;;;34.28;14.68;;;;;;;-0.26;100.00;98068.66;5115952;27;20031;-78
2023/03/18 04:08:08;;;;;;;32.70;13.77;;;;;;;-0.17;100.00;98071.16;5116175;27;20065;-78
2023/03/18 04:10:35;;;;;;;33.40;14.65;;;;;;;-0.17;100.00;98068.53;5096587;27;20334;-78
2023/03/18 04:13:02;;;;;;;31.80;13.80;;;;;;;-0.15;100.00;98066.75;5105551;27;20455;-78
2023/03/18 04:15:27;;;;;;;33.20;13.70;;;;;;;0.00;100.00;98065.72;5102227;27;20046;-78
2023/03/18 04:17:54;;;;;;;27.63;12.98;;;;;;;0.10;100.00;98071.72;5127497;28;20012;-80
2023/03/18 04:20:21;;;;;;;34.05;14.77;;;;;;;0.11;100.00;98063.81;5149171;27;20038;-79
2023/03/18 04:22:46;;;;;;;45.00;18.88;;;;;;;0.02;100.00;98042.03;5099312;28;20043;-80
2023/03/18 04:25:15;;;;;;;40.58;16.80;;;;;;;0.11;100.00;98042.78;5136495;27;20048;-81
2023/03/18 04:27:41;;;;;;;37.38;15.95;;;;;;;0.31;100.00;98066.19;5106708;28;20088;-81
2023/03/18 04:30:09;;;;;;;38.42;17.48;;;;;;;0.33;100.00;98060.03;5137832;28;20043;-81
2023/03/18 04:32:35;;;;;;;41.50;18.00;;;;;;;0.40;100.00;98066.94;5108004;28;20050;-79
2023/03/18 04:35:01;;;;;;;59.45;25.25;;;;;;;0.36;100.00;98041.56;5129783;28;20031;-81
2023/03/18 04:37:26;;;;;;;72.68;29.10;;;;;;;0.41;100.00;98047.63;5161421;27;20024;-81
2023/03/18 04:39:52;;;;;;;68.63;29.27;;;;;;;0.48;100.00;98049.28;5137476;27;20030;-81
2023/03/18 04:42:17;;;;;;;60.50;25.13;;;;;;;0.33;100.00;98023.22;5127265;27;20054;-81
2023/03/18 04:44:44;;;;;;;53.63;22.35;;;;;;;0.44;100.00;98052.84;5132262;27;20494;-81
2023/03/18 04:47:09;;;;;;;60.58;24.25;;;;;;;0.42;100.00;98043.25;5139281;27;20045;-81
2023/03/18 04:49:36;;;;;;;57.67;22.67;;;;;;;0.34;100.00;98019.66;5137015;27;20027;-81
2023/03/18 04:52:03;;;;;;;43.00;19.02;;;;;;;0.25;100.00;98022.41;5130722;27;20087;-82
2023/03/18 04:54:28;;;;;;;50.20;20.17;;;;;;;0.24;100.00;98012.81;5165782;27;20035;-81
2023/03/18 04:56:54;;;;;;;41.22;18.30;;;;;;;0.50;100.00;98046.63;5120716;27;20387;-83
2023/03/18 04:59:20;;;;;;;43.13;17.77;;;;;;;0.53;100.00;98033.41;5152314;27;20023;-82
2023/03/18 05:01:45;;;;;;;53.00;21.60;;;;;;;0.53;100.00;98043.94;5127755;27;20046;-81
2023/03/18 05:04:11;;;;;;;52.67;23.15;;;;;;;0.45;100.00;98028.28;5140824;27;20099;-82
2023/03/18 05:06:37;;;;;;;54.80;22.65;;;;;;;0.39;100.00;98009.97;5147593;27;20060;-81
2023/03/18 05:09:07;;;;;;;43.50;18.80;;;;;;;0.36;100.00;98017.03;5147025;27;20095;-81
2023/03/18 05:11:33;;;;;;;41.05;17.80;;;;;;;0.52;100.00;98035.19;5092816;27;20031;-81
2023/03/18 05:13:59;;;;;;;37.10;14.73;;;;;;;0.55;100.00;98023.75;5111724;27;20035;-81
2023/03/18 05:16:25;;;;;;;27.98;13.05;;;;;;;0.60;100.00;98026.31;5126785;27;20038;-81
2023/03/18 05:18:51;;;;;;;41.97;13.63;;;;;;;0.47;100.00;98021.22;5105141;27;20526;-81
2023/03/18 05:21:16;;;;;;;26.33;11.82;;;;;;;0.54;100.00;98033.41;5120203;27;20023;-80
2023/03/18 05:23:42;;;;;;;41.75;17.25;;;;;;;0.67;100.00;98043.75;5127588;27;20407;-81
2023/03/18 05:26:10;;;;;;;33.13;14.82;;;;;;;0.73;100.00;98043.66;5158604;27;20530;-81
2023/03/18 05:28:36;;;;;;;23.23;12.75;;;;;;;0.87;100.00;98049.56;5155590;27;20083;-81
2023/03/18 05:31:02;;;;;;;30.83;14.02;;;;;;;0.89;100.00;98024.09;5133458;27;20035;-81
2023/03/18 05:33:28;;;;;;;31.08;14.60;;;;;;;1.02;100.00;98020.34;5145076;27;20063;-81
2023/03/18 05:35:56;;;;;;;34.90;15.25;;;;;;;1.15;100.00;98027.16;5138466;27;20031;-82
2023/03/18 05:38:23;;;;;;;43.47;19.17;;;;;;;1.18;100.00;98029.75;5131671;27;20048;-82
2023/03/18 05:40:51;;;;;;;61.15;23.80;;;;;;;1.46;100.00;98032.75;5106211;27;20019;-82
2023/03/18 05:43:17;;;;;;;59.55;25.27;;;;;;;1.56;100.00;98024.66;5104195;27;20573;-81
2023/03/18 05:45:42;;;;;;;55.08;24.35;;;;;;;1.59;100.00;97998.25;5103242;27;20190;-82
2023/03/18 05:48:09;;;;;;;57.05;24.52;;;;;;;2.16;100.00;98016.41;5110686;27;20163;-82
2023/03/18 05:50:40;;;;;;;69.10;26.35;;;;;;;2.68;100.00;98016.13;5113348;27;20063;-83
2023/03/18 05:53:07;;;;;;;56.47;25.58;;;;;;;3.82;100.00;98011.41;5122167;27;20082;-81
2023/03/18 05:55:33;;;;;;;57.47;24.48;;;;;;;4.64;100.00;97977.19;5102442;27;20027;-82
2023/03/18 05:58:01;;;;;;;60.55;26.67;;;;;;;4.69;100.00;97939.03;5103475;27;20019;-82
2023/03/18 06:00:28;;;;;;;76.03;32.83;;;;;;;5.11;100.00;97919.97;5129205;27;20026;-80
2023/03/18 06:03:19;;;;;;;62.80;28.52;;;;;;;5.80;100.00;97922.78;5125829;27;20015;-83
2023/03/18 06:05:46;;;;;;;65.22;30.63;;;;;;;7.29;100.00;97868.91;5127895;27;20390;-81
2023/03/18 06:08:12;;;;;;;50.80;26.83;;;;;;;8.84;92.68;97894.47;5120459;27;20027;-80
2023/03/18 06:10:37;;;;;;;54.58;26.42;;;;;;;9.62;84.91;97877.06;5119327;27;20158;-82
2023/03/18 06:13:03;;;;;;;46.58;24.17;;;;;;;10.56;74.43;97826.41;5102200;27;20031;-81
2023/03/18 06:15:29;;;;;;;61.72;26.40;;;;;;;11.17;70.71;97823.69;5116433;27;20034;-80
2023/03/18 06:17:55;;;;;;;45.60;23.02;;;;;;;11.52;64.85;97786.72;5132206;27;20417;-82
2023/03/18 06:20:20;;;;;;;50.10;25.45;;;;;;;12.04;62.50;97759.34;5104503;27;20355;-82
2023/03/18 06:22:49;;;;;;;49.58;26.13;;;;;;;11.61;61.51;97708.47;5101784;27;20501;-83
2023/03/18 06:25:20;;;;;;;42.45;22.17;;;;;;;10.53;63.53;97692.88;5131666;27;20106;-80
2023/03/18 06:27:46;;;;;;;49.45;24.63;;;;;;;10.43;69.70;97726.44;5113092;27;20497;-78
2023/03/18 06:30:13;;;;;;;53.65;25.05;;;;;;;10.07;70.67;97723.19;5107966;27;20019;-79
2023/03/18 06:32:39;;;;;;;56.90;25.25;;;;;;;10.29;70.13;97723.72;5130778;27;20075;-81
2023/03/18 06:35:05;;;;;;;56.40;24.95;;;;;;;11.07;67.41;97710.09;5110818;27;20023;-82
2023/03/18 06:37:49;;;;;;;50.63;24.48;;;;;;;11.15;65.61;97707.78;5106655;27;20114;-82
2023/03/18 06:40:14;;;;;;;33.63;17.52;;;;;;;11.22;65.10;97676.16;5121102;27;20027;-83
2023/03/18 06:42:43;;;;;;;29.35;16.27;;;;;;;11.22;65.17;97677.03;5155254;27;20041;-82
2023/03/18 06:45:09;;;;;;;30.92;16.45;;;;;;;11.47;65.40;97681.69;5133866;27;20509;-83
2023/03/18 06:47:35;;;;;;;29.40;14.27;;;;;;;11.70;62.43;97677.56;5116947;27;20067;-83
2023/03/18 06:50:00;;;;;;;27.58;14.70;;;;;;;11.74;61.75;97668.38;5127207;27;20092;-80
2023/03/18 06:52:27;;;;;;;23.90;13.63;;;;;;;10.27;65.83;97681.03;5130763;27;20478;-81
2023/03/18 06:54:52;;;;;;;26.90;14.93;;;;;;;10.41;70.40;97724.81;5101694;27;20031;-83
2023/03/18 06:57:19;;;;;;;28.42;14.68;;;;;;;10.88;68.18;97737.13;5125723;27;20035;-81
2023/03/18 06:59:45;;;;;;;24.70;12.98;;;;;;;10.49;68.74;97717.22;5106838;27;20474;-78
2023/03/18 07:02:11;;;;;;;25.92;14.20;;;;;;;10.97;67.48;97724.13;5140477;27;20035;-79
2023/03/18 07:04:37;;;;;;;26.17;13.57;;;;;;;10.94;68.37;97738.56;5127176;27;20113;-82
2023/03/18 07:07:03;;;;;;;20.38;10.38;;;;;;;11.19;65.37;97746.81;5119206;27;20087;-81
2023/03/18 07:09:30;;;;;;;21.83;12.43;;;;;;;11.38;62.73;97736.69;5111897;27;20118;-82
2023/03/18 07:11:55;;;;;;;23.48;13.68;;;;;;;11.24;67.36;97789.38;5147008;27;20027;-83
2023/03/18 07:14:22;;;;;;;29.88;13.98;;;;;;;11.29;66.55;97785.44;5111687;27;20034;-82
2023/03/18 07:16:47;;;;;;;26.63;14.00;;;;;;;12.50;61.63;97787.56;5112241;27;20057;-83
2023/03/18 07:19:14;;;;;;;29.52;13.45;;;;;;;13.34;59.24;97797.09;5104980;27;20027;-83
2023/03/18 07:21:41;;;;;;;24.20;13.35;;;;;;;14.32;54.74;97777.50;5099204;27;20034;-81
2023/03/18 07:24:15;;;;;;;22.10;11.98;;;;;;;15.03;52.36;97764.94;5101973;27;20390;-83
2023/03/18 07:26:40;;;;;;;15.40;9.95;;;;;;;15.79;49.87;97761.69;5052782;28;20505;-83
2023/03/18 07:29:06;;;;;;;17.65;9.82;;;;;;;15.37;48.71;97738.09;5051392;28;20123;-83
2023/03/18 07:31:32;;;;;;;17.95;9.90;;;;;;;14.74;50.92;97743.88;5051283;28;20028;-83
2023/03/18 07:33:58;;;;;;;27.00;11.52;;;;;;;14.38;51.65;97737.59;5051300;28;20035;-84
2023/03/18 07:36:24;;;;;;;28.75;15.85;;;;;;;14.78;49.94;97727.38;5051032;28;20033;-82
2023/03/18 07:38:50;;;;;;;12.88;8.30;;;;;;;14.93;49.44;97717.25;5050652;28;20024;-82
2023/03/18 07:41:16;;;;;;;24.08;11.57;;;;;;;15.28;49.23;97717.25;5051129;28;20127;-83
2023/03/18 07:43:42;;;;;;;14.40;9.13;;;;;;;16.29;47.75;97733.34;5051664;28;20104;-83
2023/03/18 07:46:08;;;;;;;17.60;10.38;;;;;;;16.85;45.58;97707.03;5051466;28;20029;-83
2023/03/18 07:48:33;;;;;;;21.92;11.95;;;;;;;17.53;44.16;97736.28;5085712;28;20388;-83
2023/03/18 07:51:00;;;;;;;23.42;12.05;;;;;;;17.75;42.46;97719.88;5085288;28;20046;-84
2023/03/18 07:53:26;;;;;;;10.93;5.93;;;;;;;17.48;43.51;97708.75;5052265;28;20027;-85
2023/03/18 07:55:52;;;;;;;19.85;12.32;;;;;;;18.20;40.80;97695.13;5052019;28;20404;-85
2023/03/18 07:58:18;;;;;;;6.50;4.00;;;;;;;18.07;41.13;97705.34;5056207;28;20029;-84
2023/03/18 08:00:44;;;;;;;7.85;4.47;;;;;;;18.24;40.95;97713.66;5055067;28;20476;-84
2023/03/18 08:03:11;;;;;;;7.30;4.43;;;;;;;18.38;38.85;97682.63;5057353;28;20050;-84
2023/03/18 08:05:37;;;;;;;14.85;8.25;;;;;;;18.40;40.47;97707.72;5069343;28;20035;-83
2023/03/18 08:08:04;;;;;;;18.77;11.23;;;;;;;18.11;41.82;97701.38;5067090;28;20182;-83
2023/03/18 08:10:30;;;;;;;20.55;11.85;;;;;;;18.38;41.93;97716.00;5053828;28;20107;-85
2023/03/18 08:12:56;;;;;;;18.92;11.30;;;;;;;17.18;43.06;97700.59;5066901;28;20021;-83
2023/03/18 08:15:22;;;;;;;11.77;6.93;;;;;;;16.27;42.05;97681.31;5050499;28;20029;-84
2023/03/18 08:17:49;;;;;;;24.13;12.57;;;;;;;16.27;44.50;97684.00;5084624;28;20135;-82
2023/03/18 08:20:14;;;;;;;19.42;10.57;;;;;;;16.86;45.23;97732.22;5050942;28;20029;-83
2023/03/18 08:22:44;;;;;;;18.90;11.02;;;;;;;17.29;44.17;97741.94;5052808;28;20598;-83
2023/03/18 08:25:10;;;;;;;18.00;9.80;;;;;;;18.06;42.81;97741.53;5050828;28;20067;-85
2023/03/18 08:27:36;;;;;;;16.08;11.02;;;;;;;18.18;42.65;97735.03;5051237;28;20060;-84
2023/03/18 08:30:02;;;;;;;17.52;10.75;;;;;;;19.09;41.33;97751.91;5050801;28;20510;-84
2023/03/18 08:32:27;;;;;;;14.38;9.05;;;;;;;16.51;44.12;97706.28;5050486;28;20462;-84
2023/03/18 08:34:53;;;;;;;16.48;9.95;;;;;;;16.71;45.25;97732.50;5041566;28;20463;-85
2023/03/18 08:37:28;;;;;;;21.80;10.40;;;;;;;17.71;43.74;97745.50;5037611;28;20111;-84
2023/03/18 08:39:53;;;;;;;17.95;8.57;;;;;;;18.94;41.83;97756.91;5063257;28;20029;-83
2023/03/18 08:42:19;;;;;;;12.65;8.50;;;;;;;17.87;42.13;97721.50;5037118;28;20051;-85
2023/03/18 08:44:45;;;;;;;15.60;9.02;;;;;;;14.76;48.16;97704.25;5036719;28;20421;-84
2023/03/18 08:47:10;;;;;;;15.77;9.15;;;;;;;12.24;54.51;97711.50;5036085;28;20032;-84
2023/03/18 08:49:36;;;;;;;19.05;10.15;;;;;;;11.84;61.38;97749.91;5053135;28;20092;-82
2023/03/18 08:52:02;;;;;;;21.23;9.13;;;;;;;11.43;65.59;97777.44;5037155;28;20025;-84
2023/03/18 08:54:28;;;;;;;18.20;9.23;;;;;;;11.71;63.38;97783.81;5070371;28;20069;-84
2023/03/18 08:56:54;;;;;;;15.43;8.27;;;;;;;11.37;64.26;97785.84;5053472;28;20503;-83
2023/03/18 08:59:20;;;;;;;16.15;9.43;;;;;;;13.70;58.45;97831.28;5036060;28;20024;-85
2023/03/18 09:01:46;;;;;;;14.52;7.88;;;;;;;15.78;50.60;97831.97;5052299;28;20603;-83
2023/03/18 09:04:13;;;;;;;15.18;8.98;;;;;;;15.96;48.45;97798.13;5035878;28;20031;-84
2023/03/18 09:06:40;;;;;;;31.05;9.45;;;;;;;14.71;47.20;97766.50;5052080;28;20392;-84
2023/03/18 09:09:07;;;;;;;17.75;7.38;;;;;;;13.93;49.36;97762.44;5070588;28;20031;-83
2023/03/18 09:11:32;;;;;;;16.45;8.15;;;;;;;13.55;50.55;97765.16;5053963;28;20234;-83
2023/03/18 09:13:58;;;;;;;10.95;6.55;;;;;;;13.95;49.09;97766.75;5053150;28;20020;-85
2023/03/18 09:16:24;;;;;;;13.48;6.43;;;;;;;15.19;47.01;97799.66;5053460;28;20469;-85
2023/03/18 09:18:49;;;;;;;23.48;15.13;;;;;;;14.68;46.58;97755.09;5052605;28;20124;-84
2023/03/18 09:21:16;;;;;;;10.00;5.47;;;;;;;15.57;46.20;97784.09;5036041;28;20038;-83
2023/03/18 09:23:42;;;;;;;10.02;4.97;;;;;;;17.88;41.68;97820.66;5056860;28;20084;-84
2023/03/18 09:26:07;;;;;;;8.30;4.43;;;;;;;19.07;37.62;97778.31;5058085;28;20435;-83
2023/03/18 09:28:33;;;;;;;10.63;5.13;;;;;;;18.51;38.68;97742.00;5040427;28;20048;-84
2023/03/18 09:30:59;;;;;;;5.72;3.75;;;;;;;17.25;39.22;97734.22;5055326;28;20028;-84
2023/03/18 09:33:25;;;;;;;12.05;4.32;;;;;;;15.64;40.83;97684.69;5052483;28;20455;-84
2023/03/18 09:35:51;;;;;;;5.22;3.13;;;;;;;14.50;42.49;97676.59;5035227;28;20060;-84
2023/03/18 09:38:18;;;;;;;9.85;3.45;;;;;;;15.39;41.50;97718.09;5035075;28;20112;-83
2023/03/18 09:41:20;;;;;;;5.47;3.53;;;;;;;15.70;39.95;97698.56;5052062;28;20050;-83
2023/03/18 09:44:02;;;;;;;8.07;3.67;;;;;;;14.93;41.31;97695.72;5047981;28;20045;-84
2023/03/18 09:46:34;;;;;;;4.88;3.15;;;;;;;16.29;38.59;97725.22;5034055;28;20495;-83
2023/03/18 09:49:08;;;;;;;8.20;2.83;;;;;;;17.21;36.93;97733.63;5067826;28;20024;-83
2023/03/18 09:51:36;;;;;;;4.70;2.92;;;;;;;17.73;36.24;97746.22;5035288;28;20039;-83
2023/03/18 09:54:06;;;;;;;6.60;3.80;;;;;;;19.45;33.56;97750.34;5051758;28;20048;-83
2023/03/18 09:56:34;;;;;;;4.38;2.83;;;;;;;19.70;32.90;97744.28;5034830;28;20401;-84
2023/03/18 09:59:11;;;;;;;5.43;3.10;;;;;;;21.77;31.23;97779.66;5034353;28;20020;-83
2023/03/18 10:01:37;;;;;;;5.07;2.70;;;;;;;22.97;28.14;97728.66;5051158;28;20035;-82
2023/03/18 10:04:22;;;;;;;9.68;2.20;;;;;;;23.41;27.23;97718.34;5034182;28;20037;-84
2023/03/18 10:07:01;;;;;;;4.55;2.47;;;;;;;24.34;26.21;97727.72;5051096;28;20024;-83
2023/03/18 10:09:39;;;;;;;2.28;2.00;;;;;;;25.87;24.16;97735.00;5053889;28;20423;-82
2023/03/18 10:12:15;;;;;;;3.45;2.20;;;;;;;25.73;23.89;97695.56;5040909;28;20020;-82
2023/03/18 10:15:18;;;;;;;3.05;2.42;;;;;;;22.66;26.04;97643.88;5037718;28;20516;-82
2023/03/18 10:18:25;;;;;;;5.40;2.42;;;;;;;23.64;26.14;97689.28;5057136;28;20059;-82
2023/03/18 10:21:28;;;;;;;5.07;3.15;;;;;;;23.51;28.16;97683.50;5060361;28;20029;-82
2023/03/18 10:24:02;;;;;;;14.85;7.15;;;;;;;23.89;28.47;97706.47;5062601;28;20516;-82
2023/03/18 10:26:39;;;;;;;5.10;3.08;;;;;;;22.79;27.18;97636.06;5077388;28;20028;-82
2023/03/18 10:29:13;;;;;;;8.85;3.30;;;;;;;22.35;28.98;97653.63;5059033;28;20496;-81
2023/03/18 10:31:57;;;;;;;32.55;16.25;;;;;;;20.77;29.87;97618.59;5057316;28;20029;-84
2023/03/18 10:34:31;;;;;;;16.33;9.68;;;;;;;17.86;33.58;97570.97;5047362;28;20409;-82
2023/03/18 10:37:34;;;;;;;10.02;3.92;;;;;;;16.78;35.67;97576.16;5047114;28;20033;-82
2023/03/18 10:40:09;;;;;;;7.85;4.45;;;;;;;17.09;35.91;97615.75;5056869;28;20044;-83
2023/03/18 10:42:36;;;;;;;11.52;5.03;;;;;;;16.05;38.31;97613.91;5035546;28;20061;-83
2023/03/18 10:45:21;;;;;;;12.43;4.97;;;;;;;15.10;39.55;97595.59;5052366;28;20031;-81
2023/03/18 10:47:56;;;;;;;8.32;4.70;;;;;;;14.14;40.75;97577.94;5044154;28;20048;-82
2023/03/18 10:50:37;;;;;;;8.95;4.53;;;;;;;12.90;42.57;97565.63;5052140;28;20025;-83
2023/03/18 10:53:06;;;;;;;10.65;5.60;;;;;;;12.73;43.64;97595.50;5035044;28;20033;-83
2023/03/18 10:55:48;;;;;;;13.82;5.18;;;;;;;13.00;43.91;97615.91;5051174;28;20042;-83
2023/03/18 10:58:18;;;;;;;18.08;4.68;;;;;;;13.22;43.54;97612.59;5037012;28;20051;-83
2023/03/18 11:00:44;;;;;;;18.27;7.57;;;;;;;13.50;42.14;97617.66;5053865;28;20064;-82
2023/03/18 11:03:38;;;;;;;8.00;5.18;;;;;;;13.47;43.06;97630.50;5034499;28;20060;-81
2023/03/18 11:06:06;;;;;;;12.73;5.20;;;;;;;13.41;42.88;97621.00;5040707;28;20056;-82
2023/03/18 11:08:38;;;;;;;12.98;5.88;;;;;;;13.38;43.43;97621.25;5051196;28;20507;-83
2023/03/18 11:11:20;;;;;;;;;;;;;;;13.44;42.47;97615.41;5037138;28;20044;-82
2023/03/18 11:13:51;;;;;;;18.27;9.10;;;;;;;13.64;41.41;97626.56;5070329;28;19912;-84
2023/03/18 11:16:44;;;;;;;5.55;3.60;;;;;;;13.99;40.41;97630.22;5067231;28;20283;-81
2023/03/18 11:19:38;;;;;;;9.90;5.20;;;;;;;14.29;40.29;97633.28;5029411;28;20037;-82
2023/03/18 11:22:10;;;;;;;9.38;4.72;;;;;;;13.92;39.54;97602.06;5050178;28;20047;-81
2023/03/18 11:24:38;;;;;;;12.20;5.10;;;;;;;13.77;39.88;97601.38;5049327;28;20188;-81
2023/03/18 11:27:13;;;;;;;3.83;2.63;;;;;;;13.52;39.37;97586.19;5050325;28;20572;-83